createdAt,value
2022-08-26T00:00:02.785Z,1.73
2022-08-26T00:02:32.201Z,1.97
2022-08-26T00:05:00.451Z,1.50
2022-08-26T00:07:31.394Z,1.63
2022-08-26T00:09:59.570Z,1.50
2022-08-26T00:12:35.929Z,1.57
2022-08-26T00:15:08.914Z,1.60
2022-08-26T00:17:48.971Z,1.60
2022-08-26T00:20:19.115Z,2.03
2022-08-26T00:22:47.670Z,1.50
2022-08-26T00:25:20.416Z,1.40
2022-08-26T00:27:48.682Z,1.70
2022-08-26T00:30:22.769Z,1.30
2022-08-26T00:32:52.328Z,1.90
2022-08-26T00:35:23.094Z,1.57
2022-08-26T00:37:51.227Z,1.50
2022-08-26T00:40:21.328Z,1.13
2022-08-26T00:42:50.124Z,1.50
2022-08-26T00:45:19.749Z,1.53
2022-08-26T00:47:49.242Z,1.30
2022-08-26T00:50:20.222Z,1.60
2022-08-26T00:52:48.484Z,1.43
2022-08-26T00:55:20.630Z,1.40
2022-08-26T00:57:50.462Z,1.30
2022-08-26T01:00:25.076Z,1.60
2022-08-26T01:02:53.199Z,1.23
2022-08-26T01:05:24.723Z,1.60
2022-08-26T01:07:53.085Z,2.13
2022-08-26T01:10:23.054Z,1.33
2022-08-26T01:12:53.192Z,1.20
2022-08-26T01:15:25.217Z,1.57
2022-08-26T01:18:00.950Z,1.40
2022-08-26T01:20:32.898Z,1.07
2022-08-26T01:23:05.503Z,1.33
2022-08-26T01:25:43.182Z,1.50
2022-08-26T01:28:13.229Z,1.50
2022-08-26T01:30:42.740Z,1.20
2022-08-26T01:33:13.875Z,1.50
2022-08-26T01:35:46.166Z,1.40
2022-08-26T01:38:16.118Z,1.77
2022-08-26T01:40:45.830Z,1.33
2022-08-26T01:43:17.418Z,1.07
2022-08-26T01:45:48.927Z,1.43
2022-08-26T01:48:19.109Z,1.70
2022-08-26T01:50:47.842Z,1.50
2022-08-26T01:53:18.681Z,0.97
2022-08-26T01:55:53.042Z,1.20
2022-08-26T01:58:24.865Z,1.20
2022-08-26T02:00:53.604Z,1.07
2022-08-26T02:03:22.800Z,1.53
2022-08-26T02:05:56.052Z,1.83
2022-08-26T02:08:27.412Z,1.30
2022-08-26T02:11:09.233Z,1.37
2022-08-26T02:13:43.218Z,1.37
2022-08-26T02:16:11.963Z,1.30
2022-08-26T02:18:41.677Z,1.20
2022-08-26T02:21:11.558Z,1.37
2022-08-26T02:23:41.467Z,0.90
2022-08-26T02:26:11.534Z,1.20
2022-08-26T02:28:41.942Z,1.10
2022-08-26T02:31:10.188Z,1.10
2022-08-26T02:33:42.922Z,1.33
2022-08-26T02:36:12.241Z,1.40
2022-08-26T02:38:43.731Z,1.57
2022-08-26T02:41:14.739Z,1.30
2022-08-26T02:43:44.843Z,1.30
2022-08-26T02:46:13.109Z,1.70
2022-08-26T02:48:49.985Z,1.80
2022-08-26T02:51:18.263Z,1.73
2022-08-26T02:53:49.394Z,1.20
2022-08-26T02:56:18.425Z,1.00
2022-08-26T02:58:46.880Z,1.30
2022-08-26T03:01:22.380Z,0.90
2022-08-26T03:03:51.896Z,1.10
2022-08-26T03:06:20.292Z,1.30
2022-08-26T03:08:50.383Z,1.07
2022-08-26T03:11:18.717Z,1.37
2022-08-26T03:13:47.597Z,1.00
2022-08-26T03:16:15.909Z,1.17
2022-08-26T03:18:44.268Z,1.00
2022-08-26T03:21:21.040Z,1.30
2022-08-26T03:23:52.251Z,1.37
2022-08-26T03:26:20.538Z,1.20
2022-08-26T03:29:06.474Z,1.07
2022-08-26T03:31:36.284Z,1.77
2022-08-26T03:34:07.532Z,1.00
2022-08-26T03:36:36.410Z,1.27
2022-08-26T03:39:07.008Z,1.10
2022-08-26T03:41:36.002Z,1.27
2022-08-26T03:44:04.603Z,1.30
2022-08-26T03:46:33.359Z,1.27
2022-08-26T03:49:01.773Z,0.80
2022-08-26T03:51:30.144Z,1.30
2022-08-26T03:54:00.633Z,1.00
2022-08-26T03:56:30.679Z,1.03
2022-08-26T03:58:58.727Z,1.40
2022-08-26T04:01:28.469Z,1.00
2022-08-26T04:04:01.895Z,1.60
2022-08-26T04:06:34.148Z,1.80
2022-08-26T04:09:05.801Z,1.40
2022-08-26T04:11:38.316Z,1.13
2022-08-26T04:14:09.721Z,1.43
2022-08-26T04:16:39.179Z,1.60
2022-08-26T04:19:07.871Z,1.33
2022-08-26T04:21:38.289Z,1.30
2022-08-26T04:24:11.360Z,1.23
2022-08-26T04:26:47.946Z,1.30
2022-08-26T04:29:18.322Z,1.40
2022-08-26T04:31:48.797Z,1.10
2022-08-26T04:34:17.570Z,0.97
2022-08-26T04:36:52.498Z,1.23
2022-08-26T04:39:21.277Z,1.00
2022-08-26T04:41:55.440Z,0.80
2022-08-26T04:44:25.861Z,1.40
2022-08-26T04:46:59.403Z,1.10
2022-08-26T04:49:27.745Z,1.27
2022-08-26T04:51:56.072Z,1.13
2022-08-26T04:54:25.219Z,1.27
2022-08-26T04:56:55.990Z,1.37
2022-08-26T04:59:25.599Z,1.57
2022-08-26T05:02:03.162Z,1.40
2022-08-26T05:04:37.049Z,0.63
2022-08-26T05:07:10.169Z,1.30
2022-08-26T05:09:40.061Z,1.33
2022-08-26T05:12:10.809Z,0.90
2022-08-26T05:14:41.533Z,1.30
2022-08-26T05:17:14.965Z,1.27
2022-08-26T05:19:44.917Z,1.40
2022-08-26T05:22:13.357Z,1.23
2022-08-26T05:24:48.096Z,1.43
2022-08-26T05:27:19.738Z,0.90
2022-08-26T05:29:48.297Z,1.13
2022-08-26T05:32:22.901Z,1.63
2022-08-26T05:34:55.438Z,1.33
2022-08-26T05:37:25.006Z,1.30
2022-08-26T05:39:53.352Z,1.83
2022-08-26T05:42:23.169Z,1.60
2022-08-26T05:45:11.000Z,2.43
2022-08-26T05:47:42.156Z,1.20
2022-08-26T05:50:11.741Z,1.30
2022-08-26T05:52:40.442Z,1.50
2022-08-26T05:55:09.490Z,1.43
2022-08-26T05:57:42.928Z,2.37
2022-08-26T06:00:12.718Z,1.43
2022-08-26T06:02:45.152Z,1.20
2022-08-26T06:05:17.050Z,1.60
2022-08-26T06:08:05.960Z,1.50
2022-08-26T06:10:36.312Z,1.10
2022-08-26T06:13:09.162Z,1.97
2022-08-26T06:15:42.750Z,1.37
2022-08-26T06:18:18.813Z,1.20
2022-08-26T06:20:57.004Z,1.50
2022-08-26T06:23:44.107Z,1.20
2022-08-26T06:26:15.936Z,1.50
2022-08-26T06:28:45.841Z,1.60
2022-08-26T06:31:14.655Z,1.27
2022-08-26T06:33:49.554Z,2.20
2022-08-26T06:36:25.175Z,1.93
2022-08-26T06:38:54.137Z,1.60
2022-08-26T06:41:23.050Z,1.10
2022-08-26T06:43:53.854Z,1.43
2022-08-26T06:46:24.899Z,1.30
2022-08-26T06:48:54.626Z,1.20
2022-08-26T06:51:29.882Z,1.03
2022-08-26T06:54:00.208Z,1.07
2022-08-26T06:56:30.619Z,1.37
2022-08-26T06:59:09.690Z,1.20
2022-08-26T07:01:43.122Z,1.20
2022-08-26T07:04:20.155Z,1.10
2022-08-26T07:06:56.380Z,1.13
2022-08-26T07:09:26.614Z,0.97
2022-08-26T07:11:56.390Z,1.30
2022-08-26T07:14:26.949Z,0.90
2022-08-26T07:16:55.703Z,0.73
2022-08-26T07:19:30.746Z,0.77
2022-08-26T07:22:08.642Z,1.00
2022-08-26T07:24:42.345Z,1.13
2022-08-26T07:27:15.596Z,1.27
2022-08-26T07:29:45.308Z,1.30
2022-08-26T07:32:17.292Z,1.20
2022-08-26T07:34:47.780Z,0.90
2022-08-26T07:37:19.213Z,1.00
2022-08-26T07:39:53.734Z,1.40
2022-08-26T07:42:26.668Z,1.00
2022-08-26T07:44:58.779Z,0.90
2022-08-26T07:47:28.141Z,1.00
2022-08-26T07:49:56.417Z,0.80
2022-08-26T07:52:27.003Z,0.87
2022-08-26T07:54:56.345Z,0.70
2022-08-26T07:57:24.807Z,0.73
2022-08-26T07:59:53.970Z,1.07
2022-08-26T08:02:25.670Z,1.20
2022-08-26T08:05:00.151Z,1.00
2022-08-26T08:07:44.361Z,1.33
2022-08-26T08:10:18.958Z,1.37
2022-08-26T08:12:53.469Z,0.90
2022-08-26T08:15:27.106Z,0.90
2022-08-26T08:18:07.400Z,0.97
2022-08-26T08:20:59.138Z,0.73
2022-08-26T08:23:33.438Z,0.77
2022-08-26T08:26:05.137Z,0.83
2022-08-26T08:28:34.487Z,0.73
2022-08-26T08:31:13.394Z,1.00
2022-08-26T08:33:49.553Z,1.00
2022-08-26T08:36:21.203Z,0.73
2022-08-26T08:38:49.711Z,1.00
2022-08-26T08:41:36.723Z,0.77
2022-08-26T08:44:05.091Z,0.70
2022-08-26T08:46:38.536Z,0.87
2022-08-26T08:49:10.168Z,0.80
2022-08-26T08:51:41.167Z,0.83
2022-08-26T08:54:13.429Z,1.17
2022-08-26T08:56:45.344Z,1.00
2022-08-26T08:59:15.856Z,0.70
2022-08-26T09:01:52.673Z,1.83
2022-08-26T09:04:52.886Z,0.83
2022-08-26T09:07:28.042Z,0.90
2022-08-26T09:10:01.607Z,1.23
2022-08-26T09:12:35.702Z,0.93
2022-08-26T09:15:05.290Z,1.07
2022-08-26T09:17:45.387Z,0.80
2022-08-26T09:20:19.599Z,0.60
2022-08-26T09:22:53.194Z,1.50
2022-08-26T09:25:21.544Z,0.80
2022-08-26T09:27:57.830Z,0.70
2022-08-26T09:30:37.006Z,0.53
2022-08-26T09:33:15.332Z,0.80
2022-08-26T09:35:48.906Z,0.87
2022-08-26T09:38:27.856Z,0.70
2022-08-26T09:40:59.354Z,1.00
2022-08-26T09:43:34.891Z,0.87
2022-08-26T09:46:15.278Z,0.67
2022-08-26T09:48:43.682Z,0.80
2022-08-26T09:51:29.843Z,1.20
2022-08-26T09:53:59.859Z,0.90
2022-08-26T09:56:39.340Z,1.30
2022-08-26T09:59:12.598Z,0.80
2022-08-26T10:01:51.097Z,1.20
2022-08-26T10:04:31.612Z,1.00
2022-08-26T10:07:05.988Z,1.30
2022-08-26T10:09:39.512Z,1.27
2022-08-26T10:12:08.876Z,1.43
2022-08-26T10:14:47.507Z,1.10
2022-08-26T10:17:19.847Z,1.00
2022-08-26T10:19:58.360Z,1.47
2022-08-26T10:22:35.994Z,1.00
2022-08-26T10:25:11.433Z,1.00
2022-08-26T10:27:49.738Z,1.17
2022-08-26T10:30:30.017Z,1.30
2022-08-26T10:33:10.736Z,1.10
2022-08-26T10:35:51.797Z,1.30
2022-08-26T10:38:29.513Z,1.53
2022-08-26T10:41:03.906Z,1.00
2022-08-26T10:43:45.447Z,1.40
2022-08-26T10:46:17.962Z,1.07
2022-08-26T10:48:54.758Z,1.13
2022-08-26T10:51:29.388Z,1.20
2022-08-26T10:54:03.271Z,1.43
2022-08-26T10:56:50.951Z,1.50
2022-08-26T10:59:23.316Z,1.47
2022-08-26T11:01:55.186Z,1.33
2022-08-26T11:04:47.556Z,1.40
2022-08-26T11:07:52.282Z,1.23
2022-08-26T11:11:05.169Z,1.20
2022-08-26T11:14:06.533Z,0.90
2022-08-26T11:16:44.369Z,1.20
2022-08-26T11:19:13.441Z,0.90
2022-08-26T11:21:52.287Z,1.30
2022-08-26T11:24:58.233Z,1.23
2022-08-26T11:28:00.695Z,1.20
2022-08-26T11:30:58.144Z,1.50
2022-08-26T11:34:11.045Z,1.00
2022-08-26T11:37:00.563Z,1.33
2022-08-26T11:39:42.226Z,1.07
2022-08-26T11:42:27.881Z,1.60
2022-08-26T11:45:05.510Z,1.00
2022-08-26T11:47:35.760Z,0.90
2022-08-26T11:50:15.547Z,0.93
2022-08-26T11:52:53.006Z,1.00
2022-08-26T11:55:26.152Z,1.17
2022-08-26T11:58:04.829Z,1.03
2022-08-26T12:00:36.183Z,1.30
2022-08-26T12:03:09.380Z,1.27
2022-08-26T12:05:45.281Z,0.80
2022-08-26T12:08:15.827Z,1.10
2022-08-26T12:10:44.293Z,1.20
2022-08-26T12:13:26.496Z,0.97
2022-08-26T12:15:57.529Z,1.10
2022-08-26T12:18:29.290Z,1.20
2022-08-26T12:21:00.201Z,1.20
2022-08-26T12:23:37.632Z,1.43
2022-08-26T12:26:20.017Z,1.37
2022-08-26T12:28:55.172Z,1.40
2022-08-26T12:31:41.008Z,1.03
2022-08-26T12:34:17.918Z,1.33
2022-08-26T12:36:47.530Z,1.47
2022-08-26T12:39:25.548Z,1.40
2022-08-26T12:41:54.862Z,1.30
2022-08-26T12:44:54.089Z,1.37
2022-08-26T12:47:31.018Z,1.40
2022-08-26T12:50:13.665Z,1.47
2022-08-26T12:52:51.140Z,1.17
2022-08-26T12:55:24.260Z,1.43
2022-08-26T12:58:08.909Z,1.53
2022-08-26T13:00:45.072Z,1.13
2022-08-26T13:03:45.990Z,1.57
2022-08-26T13:06:31.649Z,0.90
2022-08-26T13:09:08.761Z,1.20
2022-08-26T13:12:03.181Z,1.10
2022-08-26T13:14:31.646Z,1.40
2022-08-26T13:16:59.981Z,1.67
2022-08-26T13:19:29.585Z,1.37
2022-08-26T13:22:04.000Z,1.10
2022-08-26T13:24:37.505Z,1.23
2022-08-26T13:27:06.375Z,1.30
2022-08-26T13:29:34.785Z,1.10
2022-08-26T13:32:08.580Z,0.93
2022-08-26T13:34:51.050Z,1.57
2022-08-26T13:37:34.869Z,1.80
2022-08-26T13:40:04.867Z,1.43
2022-08-26T13:42:34.651Z,1.57
2022-08-26T13:45:10.076Z,1.23
2022-08-26T13:47:38.312Z,0.90
2022-08-26T13:50:07.525Z,1.20
2022-08-26T13:52:37.316Z,1.20
2022-08-26T13:55:08.050Z,1.30
2022-08-26T13:57:36.353Z,1.20
2022-08-26T14:00:12.486Z,1.13
2022-08-26T14:02:44.164Z,1.30
2022-08-26T14:05:17.129Z,1.60
2022-08-26T14:07:46.903Z,1.30
2022-08-26T14:10:15.150Z,1.23
2022-08-26T14:12:43.915Z,1.40
2022-08-26T14:15:18.404Z,1.20
2022-08-26T14:17:46.827Z,1.20
2022-08-26T14:20:15.804Z,1.10
2022-08-26T14:23:03.602Z,1.00
2022-08-26T14:25:41.303Z,1.30
2022-08-26T14:28:13.180Z,1.03
2022-08-26T14:30:47.743Z,1.17
2022-08-26T14:33:18.962Z,1.60
2022-08-26T14:35:49.924Z,1.27
2022-08-26T14:38:20.913Z,1.40
2022-08-26T14:40:59.801Z,1.37
2022-08-26T14:43:34.194Z,1.27
2022-08-26T14:46:11.377Z,1.40
2022-08-26T14:49:12.616Z,1.10
2022-08-26T14:51:48.969Z,1.33
2022-08-26T14:54:22.921Z,1.23
2022-08-26T14:57:09.360Z,1.33
2022-08-26T14:59:38.836Z,1.27
2022-08-26T15:02:10.573Z,1.40
2022-08-26T15:04:42.701Z,1.53
2022-08-26T15:07:14.082Z,1.03
2022-08-26T15:09:52.965Z,1.30
2022-08-26T15:12:27.410Z,1.17
2022-08-26T15:14:57.866Z,1.40
2022-08-26T15:17:28.054Z,1.50
2022-08-26T15:19:57.956Z,1.43
2022-08-26T15:22:26.582Z,1.40
2022-08-26T15:25:01.685Z,1.03
2022-08-26T15:27:31.335Z,1.43
2022-08-26T15:30:02.076Z,1.63
2022-08-26T15:32:37.055Z,1.30
2022-08-26T15:35:12.832Z,1.40
2022-08-26T15:37:41.134Z,1.40
2022-08-26T15:40:15.500Z,1.40
2022-08-26T15:42:45.132Z,1.93
2022-08-26T15:45:26.036Z,1.73
2022-08-26T15:48:00.679Z,1.50
2022-08-26T15:50:30.856Z,1.57
2022-08-26T15:53:01.455Z,1.43
2022-08-26T15:55:37.763Z,1.13
2022-08-26T15:58:11.580Z,1.60
2022-08-26T16:00:47.425Z,1.73
2022-08-26T16:03:15.664Z,1.47
2022-08-26T16:05:48.412Z,1.23
2022-08-26T16:08:21.703Z,1.53
2022-08-26T16:10:51.394Z,1.40
2022-08-26T16:13:21.108Z,1.03
2022-08-26T16:15:52.059Z,1.83
2022-08-26T16:18:20.586Z,1.40
2022-08-26T16:21:12.682Z,1.50
2022-08-26T16:23:45.088Z,1.47
2022-08-26T16:26:21.308Z,1.10
2022-08-26T16:28:51.085Z,1.70
2022-08-26T16:31:23.439Z,1.37
2022-08-26T16:33:51.731Z,1.67
2022-08-26T16:36:25.211Z,1.67
2022-08-26T16:38:56.395Z,1.60
2022-08-26T16:41:24.904Z,1.87
2022-08-26T16:44:06.563Z,1.70
2022-08-26T16:46:41.013Z,1.50
2022-08-26T16:49:14.592Z,1.70
2022-08-26T16:51:45.582Z,1.90
2022-08-26T16:54:16.295Z,1.63
2022-08-26T16:56:50.593Z,2.07
2022-08-26T16:59:21.478Z,2.33
2022-08-26T17:01:50.799Z,1.73
2022-08-26T17:04:20.305Z,1.87
2022-08-26T17:07:04.916Z,1.90
2022-08-26T17:09:34.461Z,1.60
2022-08-26T17:12:02.639Z,1.70
2022-08-26T17:14:39.859Z,2.40
2022-08-26T17:17:12.555Z,2.20
2022-08-26T17:19:50.133Z,2.10
2022-08-26T17:22:24.822Z,2.17
2022-08-26T17:24:53.171Z,2.13
2022-08-26T17:27:23.848Z,1.93
2022-08-26T17:29:53.436Z,1.73
2022-08-26T17:32:21.744Z,1.43
2022-08-26T17:34:52.128Z,2.00
2022-08-26T17:37:24.822Z,1.60
2022-08-26T17:39:58.787Z,1.60
2022-08-26T17:42:31.839Z,1.70
2022-08-26T17:45:04.948Z,1.67
2022-08-26T17:47:33.102Z,2.03
2022-08-26T17:50:02.565Z,1.77
2022-08-26T17:52:31.843Z,2.03
2022-08-26T17:55:00.751Z,2.03
2022-08-26T17:57:40.458Z,2.13
2022-08-26T18:00:24.736Z,2.30
2022-08-26T18:02:58.661Z,2.07
2022-08-26T18:05:28.497Z,2.20
2022-08-26T18:08:03.114Z,2.73
2022-08-26T18:10:35.799Z,2.40
2022-08-26T18:13:07.526Z,2.03
2022-08-26T18:15:46.244Z,2.20
2022-08-26T18:18:17.729Z,2.00
2022-08-26T18:20:47.191Z,2.00
2022-08-26T18:23:22.683Z,2.67
2022-08-26T18:25:52.875Z,2.17
2022-08-26T18:28:24.894Z,2.43
2022-08-26T18:31:01.089Z,2.47
2022-08-26T18:33:31.119Z,1.80
2022-08-26T18:36:07.214Z,1.83
2022-08-26T18:38:36.278Z,1.20
2022-08-26T18:41:09.602Z,1.53
2022-08-26T18:43:39.346Z,1.87
2022-08-26T18:46:40.051Z,2.07
2022-08-26T18:49:22.248Z,1.80
2022-08-26T18:51:53.280Z,1.90
2022-08-26T18:54:22.953Z,1.90
2022-08-26T18:56:54.630Z,1.60
2022-08-26T18:59:29.661Z,1.73
2022-08-26T19:02:04.605Z,1.90
2022-08-26T19:04:43.349Z,2.03
2022-08-26T19:07:11.778Z,1.60
2022-08-26T19:09:40.070Z,1.40
2022-08-26T19:12:12.135Z,1.60
2022-08-26T19:14:40.621Z,1.73
2022-08-26T19:17:10.753Z,1.70
2022-08-26T19:19:39.603Z,1.80
2022-08-26T19:22:22.812Z,2.27
2022-08-26T19:24:51.748Z,2.20
2022-08-26T19:27:31.503Z,1.63
2022-08-26T19:30:00.234Z,1.80
2022-08-26T19:32:31.547Z,1.63
2022-08-26T19:35:00.772Z,1.77
2022-08-26T19:37:29.158Z,1.93
2022-08-26T19:39:57.656Z,1.70
2022-08-26T19:42:30.126Z,1.77
2022-08-26T19:45:18.291Z,1.70
2022-08-26T19:47:56.003Z,1.73
2022-08-26T19:50:24.725Z,1.80
2022-08-26T19:52:54.417Z,2.10
2022-08-26T19:55:24.842Z,2.27
2022-08-26T19:57:54.627Z,1.67
2022-08-26T20:00:25.208Z,1.77
2022-08-26T20:02:58.265Z,1.77
2022-08-26T20:05:27.136Z,2.00
2022-08-26T20:07:56.863Z,1.70
2022-08-26T20:10:26.392Z,1.90
2022-08-26T20:12:58.976Z,2.00
2022-08-26T20:15:28.538Z,2.07
2022-08-26T20:17:59.200Z,1.93
2022-08-26T20:20:48.739Z,1.70
2022-08-26T20:23:21.277Z,1.83
2022-08-26T20:25:49.719Z,1.70
2022-08-26T20:28:18.728Z,2.17
2022-08-26T20:30:47.162Z,2.33
2022-08-26T20:33:17.336Z,1.80
2022-08-26T20:35:47.445Z,1.70
2022-08-26T20:38:20.871Z,1.80
2022-08-26T20:40:50.981Z,1.63
2022-08-26T20:43:28.498Z,1.53
2022-08-26T20:46:08.323Z,1.70
2022-08-26T20:48:47.134Z,1.67
2022-08-26T20:51:19.707Z,2.30
2022-08-26T20:53:49.765Z,2.00
2022-08-26T20:56:25.006Z,1.80
2022-08-26T20:58:54.481Z,1.83
2022-08-26T21:01:26.508Z,2.13
2022-08-26T21:03:58.882Z,1.80
2022-08-26T21:06:28.963Z,2.00
2022-08-26T21:09:02.732Z,1.77
2022-08-26T21:11:32.331Z,1.87
2022-08-26T21:14:15.922Z,2.00
2022-08-26T21:16:45.297Z,1.80
2022-08-26T21:19:17.841Z,2.20
2022-08-26T21:21:46.536Z,2.70
2022-08-26T21:24:17.805Z,2.07
2022-08-26T21:26:46.434Z,1.90
2022-08-26T21:29:15.041Z,2.10
2022-08-26T21:31:46.531Z,2.13
2022-08-26T21:34:21.486Z,2.03
2022-08-26T21:36:49.779Z,2.17
2022-08-26T21:39:18.341Z,2.10
2022-08-26T21:41:47.294Z,2.43
2022-08-26T21:44:18.458Z,2.27
2022-08-26T21:46:46.935Z,2.50
2022-08-26T21:49:17.537Z,2.13
2022-08-26T21:51:46.949Z,2.37
2022-08-26T21:54:22.925Z,2.23
2022-08-26T21:56:51.941Z,2.40
2022-08-26T21:59:20.224Z,2.33
2022-08-26T22:01:48.546Z,2.27
2022-08-26T22:04:18.724Z,2.37
2022-08-26T22:06:54.501Z,2.20
2022-08-26T22:09:24.014Z,2.07
2022-08-26T22:11:52.240Z,2.83
2022-08-26T22:14:30.374Z,2.20
2022-08-26T22:16:59.468Z,2.10
2022-08-26T22:19:29.951Z,2.20
2022-08-26T22:21:59.076Z,2.17
2022-08-26T22:24:29.995Z,1.97
2022-08-26T22:26:58.754Z,2.23
2022-08-26T22:29:27.204Z,2.50
2022-08-26T22:31:55.700Z,2.23
2022-08-26T22:34:23.888Z,1.87
2022-08-26T22:36:55.334Z,2.50
2022-08-26T22:39:25.198Z,2.30
2022-08-26T22:41:53.547Z,2.13
2022-08-26T22:44:23.259Z,2.27
2022-08-26T22:46:54.371Z,2.40
2022-08-26T22:49:22.922Z,2.30
2022-08-26T22:51:51.167Z,2.50
2022-08-26T22:54:20.947Z,1.90
2022-08-26T22:56:49.251Z,2.30
2022-08-26T22:59:18.067Z,2.53
2022-08-26T23:01:46.858Z,2.50
2022-08-26T23:04:15.168Z,2.30
2022-08-26T23:06:47.511Z,1.90
2022-08-26T23:09:18.037Z,2.40
2022-08-26T23:11:48.721Z,2.20
2022-08-26T23:14:17.940Z,2.13
2022-08-26T23:16:47.536Z,2.90
2022-08-26T23:19:16.499Z,2.67
2022-08-26T23:21:45.230Z,2.83
2022-08-26T23:24:13.420Z,2.03
2022-08-26T23:26:42.138Z,1.70
2022-08-26T23:29:13.066Z,2.57
2022-08-26T23:31:42.170Z,1.97
2022-08-26T23:34:27.806Z,1.80
2022-08-26T23:36:58.182Z,1.57
2022-08-26T23:39:26.674Z,2.23
2022-08-26T23:41:58.213Z,1.77
2022-08-26T23:44:28.617Z,2.67
2022-08-26T23:46:56.938Z,2.10
2022-08-26T23:49:25.187Z,1.60
2022-08-26T23:52:17.474Z,2.07
2022-08-26T23:54:47.699Z,1.77
2022-08-26T23:57:16.636Z,1.90
2022-08-26T23:59:46.880Z,2.33
